• Join FlightAware (Why Join?)
  • Login
  • US Flag 
Rudolph Flight #1: Arrived! 
12:51PM EST


 

Airport Tracker/Info


-or-


 

Live Flight TrackerFlight Track Log ✈ SKW6534 ✈ 16-Apr-2013 ✈ KIDA - KDEN

Flight Track Log - Related Links

Times and Time Zones

All times are in EDT time to prevent confusion due to time zone crossing. See the SKW6534 flight status page for this flight to view local times or setup timezone preferences in your user account.

Time Position Orientation Groundspeed Altitude Reporting Facility
EDT Latitude Longitude Course Direction KTS MPH feet Rate Location/Type
03:48PM 43.5681 -112.0203 35° Northeast 180 207 7,200  Level Salt Lake Center
03:49PM 43.6267 -111.9550 39° Northeast 226 260 9,800 2,160 Climbing Salt Lake Center
03:50PM 42.4903 -110.1806 124° Southeast  Level FlightAware Approximate
03:50PM 43.6086 -111.8583 104° East 275 316 11,700  Level Salt Lake Center
03:51PM 42.4306 -110.0785 129° Southeast  Level FlightAware Approximate
03:51PM 43.5433 -111.7483 129° Southeast 324 373 14,100  Level Salt Lake Center
03:52PM 42.3699 -109.9774 129° Southeast  Level FlightAware Approximate
03:52PM 43.4875 -111.6519 129° Southeast 334 384 16,300  Level Salt Lake Center
03:53PM 43.4286 -111.5525 129° Southeast 342 394 17,900 1,740 Climbing Salt Lake Center
03:54PM 43.3539 -111.4303 130° Southeast 366 421 19,900 1,860 Climbing Salt Lake Center
03:55PM 43.2919 -111.3258 129° Southeast 371 427 21,800 1,680 Climbing Salt Lake Center
03:56PM 43.2217 -111.2036 128° Southeast 365 420 23,400 1,260 Climbing Salt Lake Center
03:57PM 43.1572 -111.0961 129° Southeast 378 435 24,400 1,140 Climbing Salt Lake Center
03:58PM 43.0819 -110.9686 129° Southeast 386 444 25,800 1,200 Climbing Salt Lake Center
03:59PM 43.0161 -110.8631 130° Southeast 381 438 26,900 840 Climbing Salt Lake Center
04:00PM 42.9506 -110.7556 130° Southeast 384 442 27,600 660 Climbing Salt Lake Center
04:01PM 42.8731 -110.6286 130° Southeast 391 450 28,300 660 Climbing Salt Lake Center
04:02PM 42.8008 -110.5122 130° Southeast 398 458 29,000 720 Climbing Salt Lake Center
04:03PM 42.7331 -110.3997 129° Southeast 401 461 29,800 720 Climbing Salt Lake Center
04:04PM 42.6525 -110.2697 130° Southeast 404 465 30,500 600 Climbing Salt Lake Center
04:05PM 42.5831 -110.1581 130° Southeast 406 467 31,100 540 Climbing Salt Lake Center
04:06PM 42.5131 -110.0456 130° Southeast 407 468 31,700 540 Climbing Salt Lake Center
04:07PM 42.4314 -109.9128 130° Southeast 411 473 32,300 540 Climbing Salt Lake Center
04:08PM 42.3589 -109.7994 131° Southeast 415 478 32,900 300 Climbing Salt Lake Center
04:09PM 42.2750 -109.6656 130° Southeast 418 481 33,000  Climbing Salt Lake Center
04:10PM 42.2008 -109.5486 131° Southeast 426 490 33,000  Level Salt Lake Center
04:11PM 42.1247 -109.4267 130° Southeast 438 504 33,000  Level Salt Lake Center
04:12PM 42.0344 -109.2853 131° Southeast 444 511 33,000  Level Salt Lake Center
04:13PM 41.9564 -109.1622 130° Southeast 448 516 33,000  Level Salt Lake Center
04:14PM 41.8778 -109.0394 131° Southeast 451 519 33,000  Level Salt Lake Center
04:15PM 41.7858 -108.8967 131° Southeast 451 519 33,000  Level Salt Lake Center
04:16PM 41.7075 -108.7761 131° Southeast 447 514 33,000  Level Salt Lake Center
04:18PM 41.6294 -108.6547 131° Southeast 447 514 33,000  Level Salt Lake Center
04:19PM 41.5375 -108.5128 131° Southeast 450 518 33,000  Level Salt Lake Center
04:20PM 41.4578 -108.3919 131° Southeast 452 520 33,000  Level Salt Lake Center
04:21PM 41.3817 -108.2294 122° Southeast 474 545 33,000  Level Salt Lake Center
04:22PM 41.3267 -108.0731 115° Southeast 485 558 33,000  Level Salt Lake Center
04:23PM 41.2719 -107.9183 115° Southeast 485 558 33,000  Level Salt Lake Center
04:23PM 41.2264 -107.7897 115° Southeast 481 554 33,000  Level Denver Center
04:24PM 41.1619 -107.6106 115° Southeast 481 554 33,000  Level Denver Center
04:25PM 41.1075 -107.4583 115° Southeast 478 550 33,000 -120 Level Denver Center
04:27PM 41.0431 -107.2789 115° Southeast 481 554 32,800 -540 Descending Denver Center
04:28PM 40.9869 -107.1236 116° Southeast 486 559 32,000 -840 Descending Denver Center
04:29PM 40.9217 -106.9447 116° Southeast 486 559 31,100 -540 Descending Denver Center
04:30PM 40.8664 -106.7928 116° Southeast 481 554 30,900 -840 Descending Denver Center
04:31PM 40.8111 -106.6439 116° Southeast 474 545 29,500 -1,260 Descending Denver Center
04:32PM 40.7511 -106.4828 116° Southeast 480 552 28,400 -900 Descending Denver Center
04:33PM 40.6853 -106.3067 116° Southeast 480 552 27,700 -540 Descending Denver Center
04:34PM 40.6258 -106.1469 116° Southeast 464 534 27,300 -420 Descending Denver Center
04:35PM 40.5697 -105.9950 116° Southeast 459 528 26,900 -840 Descending Denver Center
04:36PM 40.5125 -105.8444 117° Southeast 457 526 25,700 -1,860 Descending Denver Center
04:37PM 40.4575 -105.7025 117° Southeast 435 501 23,100 -2,460 Descending Denver Center
04:38PM 40.4050 -105.5656 117° Southeast 421 484 20,700 -2,400 Descending Denver Center
04:39PM 40.3578 -105.4422 117° Southeast 377 434 18,200 -2,400 Descending Denver Center
04:40PM 40.3375 -105.3058 101° East 355 409 15,800 -1,920 Descending Denver Center
04:41PM 40.3219 -105.1864 100° East 336 387 14,000 -1,740 Descending Denver Center
04:42PM 40.3222 -105.0592 90° East 286 329 11,900 -1,500 Descending Denver Center
04:43PM 40.3231 -104.9647 89° East 264 304 11,000 -600 Descending Denver Center
04:44PM 40.3108 -104.8775 100° East 249 287 10,700 -720 Descending Denver Center
04:45PM 40.2814 -104.7883 113° Southeast 246 283 9,600 -840 Descending Denver Center
04:46PM 40.2339 -104.7339 139° Southeast 231 266 9,000 -300 Descending Denver Center
04:47PM 40.1825 -104.6953 150° Southeast 215 247 9,000  Level Denver Center
04:48PM 40.1225 -104.6844 172° South 202 232 9,000  Level Denver Center
04:49PM 40.0761 -104.6850 181° South 172 198 9,000 -480 Level Denver Center
04:50PM 40.0347 -104.6856 181° South 149 171 8,100 -780 Descending Denver Center
04:51PM 40.0014 -104.6856 180° South 122 140 7,500 -720 Descending Denver Center
04:52PM 39.9642 -104.6864 181° South 124 143 6,700 -780 Descending Denver Center
04:53PM 39.9281 -104.6864 180° South 128 147 6,000 -660 Descending Denver Center
04:54PM 39.8903 -104.6869 181° South 134 154 5,400 -600 Descending Denver Center